| Date | Time | Temp. (oF) | Dew Point (oF) | Rel. Hum. (%) | Press. (in.) | Wind Dir. | Wind Speed (mph) | Hourly Rainfall (in.) |
|
|---|---|---|---|---|---|---|---|---|---|
| 1 | 10/28 | 00:00 | 41 | 40 | 97 | 29.88 | NW | 4 | 0.00 |
| 2 | 10/27 | 23:00 | 41 | 39 | 96 | 29.91 | NW | 3 | 0.04 |
| 3 | 10/27 | 22:00 | 42 | 39 | 91 | 29.92 | NNW | 4 | 0.04 |
| 4 | 10/27 | 21:00 | 42 | 38 | 89 | 29.94 | NNW | 3 | 0.00 |
| 5 | 10/27 | 20:00 | 42 | 38 | 87 | 29.94 | N | 7 | 0.00 |
| 6 | 10/27 | 19:00 | 41 | 40 | 97 | 29.96 | N | 4 | 0.01 |
| 7 | 10/27 | 18:00 | 41 | 40 | 98 | 29.95 | SW | 2 | 0.00 |
| 8 | 10/27 | 17:00 | 41 | 39 | 95 | 29.95 | SSE | 2 | 0.00 |
| 9 | 10/27 | 16:00 | 41 | 38 | 92 | 29.94 | SSE | 1 | 0.00 |
| 10 | 10/27 | 15:00 | 41 | 38 | 89 | 29.95 | ESE | 3 | 0.03 |
| 11 | 10/27 | 14:00 | 47 | 33 | 60 | 29.96 | NNW | 9 | 0.00 |
| 12 | 10/27 | 13:00 | 50 | 33 | 52 | 29.96 | NNW | 8 | 0.00 |
| 13 | 10/27 | 12:00 | 50 | 33 | 52 | 29.97 | WSW | 2 | 0.00 |
| 14 | 10/27 | 11:00 | 50 | 34 | 55 | 29.97 | NNW | 3 | 0.00 |
| 15 | 10/27 | 10:00 | 51 | 38 | 63 | 29.99 | NNW | 10 | 0.00 |
| 16 | 10/27 | 09:00 | 50 | 45 | 83 | 29.98 | NW | 3 | 0.00 |
| 17 | 10/27 | 08:00 | 40 | 40 | 100 | 29.94 | WNW | 0 | 0.00 |
| 18 | 10/27 | 07:00 | 41 | 41 | 100 | 29.91 | SE | 0 | 0.00 |
| 19 | 10/27 | 06:00 | 41 | 41 | 100 | 29.88 | SE | 0 | 0.00 |
| 20 | 10/27 | 05:00 | 43 | 42 | 99 | 29.87 | NW | 0 | 0.00 |
| 21 | 10/27 | 04:00 | 44 | 43 | 97 | 29.86 | WSW | 0 | 0.00 |
| 22 | 10/27 | 03:00 | 46 | 44 | 93 | 29.84 | S | 0 | 0.00 |
| 23 | 10/27 | 02:00 | 45 | 43 | 93 | 29.84 | SSE | 0 | 0.00 |
| 24 | 10/27 | 01:00 | 49 | 45 | 88 | 29.86 | SW | 3 | 0.00 |